Flight Track Log - Related Links

Times and Time Zones

All times are in EDT time to prevent confusion due to time zone crossing. See the N589H flight status page for this flight to view local times or setup timezone preferences in your user account.

Time Position Orientation Groundspeed Altitude Reporting Facility
EDT Latitude Longitude Course Direction KTS MPH feet Rate Location/Type
Thu 11:25:07 AM 30.3364 -81.5086 88° East 97 112 400  Level Jacksonville Center
Thu 11:26:02 AM 30.3378 -81.4606 88° East 187 215 2,000 1,909 Climbing Jacksonville Center
Thu 11:26:57 AM 30.3103 -81.4225 130° Southeast 189 217 3,900 2,127 Climbing Jacksonville Center
Thu 11:27:21 AM 30.2956 -81.4058 136° Southeast 187 215 4,800 2,286 Climbing Jacksonville Center
Thu 11:28:21 AM 30.2572 -81.3631 136° Southeast 192 221 7,100 2,100 Climbing Jacksonville Center
Thu 11:29:21 AM 30.2192 -81.3133 132° Southeast 192 221 9,000 1,750 Climbing Jacksonville Center
Thu 11:30:21 AM 30.1542 -81.3000 170° South 204 235 10,600 1,600 Climbing Jacksonville Center
Thu 11:31:21 AM 30.0872 -81.2842 168° South 229 264 12,200 1,600 Climbing Jacksonville Center
Thu 11:32:21 AM 30.0242 -81.2517 156° South 247 284 13,800 1,600 Climbing Jacksonville Center
Thu 11:33:21 AM 29.9611 -81.2097 150° Southeast 254 292 15,400 1,600 Climbing Jacksonville Center
Thu 11:34:21 AM 29.8958 -81.1700 152° Southeast 260 299 17,000 1,400 Climbing Jacksonville Center
Thu 11:35:21 AM 29.8306 -81.1281 151° Southeast 265 305 18,200 1,400 Climbing Jacksonville Center
Thu 11:36:21 AM 29.7653 -81.0886 152° Southeast 265 305 19,800 900 Climbing Jacksonville Center
Thu 11:37:21 AM 29.6875 -81.0494 156° South 270 311 20,000 100 Climbing Jacksonville Center
Thu 11:38:21 AM 29.6033 -81.0175 162° South 301 346 20,000  Level Jacksonville Center
Thu 11:39:21 AM 29.5153 -80.9833 161° South 323 372 20,000  Level Jacksonville Center
Thu 11:40:21 AM 29.4208 -80.9447 160° South 346 398 20,000  Level Jacksonville Center
Thu 11:41:21 AM 29.3283 -80.9083 161° South 351 404 20,000  Level Jacksonville Center
Thu 11:43:18 AM 29.1569 -80.8486 163° South 339 390 20,000  Level Miami Center
Thu 11:44:18 AM 29.0661 -80.8119 161° South 339 390 20,000  Level Miami Center
Thu 11:45:18 AM 28.9711 -80.7753 161° South 344 396 20,000  Level Miami Center
Thu 11:46:18 AM 28.8719 -80.7386 162° South 344 396 20,000  Level Miami Center
Thu 11:47:18 AM 28.7814 -80.7025 161° South 344 396 20,000 -50 Level Miami Center
Thu 11:48:18 AM 28.6986 -80.6689 160° South 344 396 19,900 -950 Descending Miami Center
Thu 11:49:18 AM 28.6078 -80.6350 162° South 344 396 18,100 -1,400 Descending Miami Center
Thu 11:50:18 AM 28.5169 -80.6036 163° South 344 396 17,100 -600 Descending Miami Center
Thu 11:51:18 AM 28.4322 -80.5700 161° South 338 389 16,900 -1,000 Descending Miami Center
Thu 11:52:18 AM 28.3372 -80.5339 162° South 332 382 15,100 -950 Descending Miami Center
Thu 11:53:18 AM 28.2606 -80.5056 162° South 332 382 15,000  Descending Miami Center
Thu 11:54:18 AM 28.1758 -80.4722 161° South 326 375 15,100 -200 Climbing Miami Center
Thu 11:55:18 AM 28.0911 -80.4411 162° South 321 369 14,600 -1,300 Descending Miami Center
Thu 11:56:18 AM 28.0061 -80.4125 163° South 321 369 12,500 -1,400 Descending Miami Center
Thu 11:57:18 AM 27.9256 -80.3819 161° South 321 369 11,800 -1,050 Descending Miami Center
Thu 11:58:18 AM 27.8511 -80.3536 161° South 303 349 10,400 -1,200 Descending Miami Center
Thu 11:59:18 AM 27.7747 -80.3231 161° South 295 339 9,400 -1,350 Descending Miami Center
Thu 12:00:18 PM 27.6875 -80.2947 164° South 295 339 7,700 -1,550 Descending Miami Center
Thu 12:01:18 PM 27.6131 -80.2667 162° South 295 339 6,300 -1,150 Descending Miami Center
Thu 12:02:18 PM 27.5367 -80.2386 162° South 295 339 5,400 -900 Descending Miami Center
Thu 12:03:18 PM 27.4703 -80.2133 161° South 283 326 4,500 -650 Descending Miami Center
Thu 12:04:18 PM 27.4000 -80.1856 161° South 283 326 4,100 -400 Descending Miami Center
Thu 12:05:18 PM 27.3167 -80.1739 173° South 278 320 3,700 -1,000 Descending Miami Center
Thu 12:06:18 PM 27.2511 -80.2094 206° Southwest 260 299 2,100 -1,150 Descending Miami Center
Thu 12:07:18 PM 27.2144 -80.2572 229° Southwest 214 246 1,400 -800 Descending Miami Center
Thu 12:08:18 PM 27.1894 -80.2542 174° South 164 189 500 -900 Descending Miami Center

Login

Don't have an account? Register now (free) for customized features, flight alerts, and more!